Pacific Palisades, CA

12:51 AM PDT on October 31, 2014 (GMT -0700)
Van Nuys | Change Station
CLOSE
Current Station
Airport
Location: Van Nuys,
Elevation: 801 ft
Nearby Weather Stations
Active Advisory: Special Statement

Elev 801 ft 34.22 °N, 118.49 °W | Updated 1 hour ago

Clear
Clear
62 °F
Feels Like 62 °F
N
0
Wind Variable Wind from North

Today
High -- | Low -- °F
--% Chance of Precip.
Yesterday
High -- | Low -- °F
Precip. -- in
7:12 AM 6:02 PM
First Quarter, 52% visible
Pressure 29.94 in
Visibility 10.0 miles
Clouds Clear
Dew Point 57 °F
Humidity 84%
Rainfall 0.00 in
Snow Depth Not available.
UV 0 out of 12
Pollen 4.40 out of 12
Air Quality Not available.
Flu Activity Not available.
METAR KVNY 310651Z 00000KT 10SM CLR 17/14 A2997 RMK AO2 SLP139 T01670139

More Conditions Fewer Conditions

Pressure 29.94 in
Visibility 10.0 miles
Clouds Clear
Dew Point 57 °F
Humidity 84%
Rainfall 0.00 in
Snow Depth Not available.
UV 0 out of 12
Pollen 4.40 out of 12
Air Quality Not available.
Flu Activity Not available.
METAR KVNY 310651Z 00000KT 10SM CLR 17/14 A2997 RMK AO2 SLP139 T01670139

More Conditions Fewer Conditions

10-Day Weather Forecast

Almanac

Astronomy

Oct. 31, 2014 Rise Set
Actual Time
Civil Twilight
Nautical Twilight
Astronomical Twilight
Moon
Length of Visible Light
Length of Day
Tomorrow will be .
, % of the Moon is Illuminated

Today's Extremes

State Highs State Lows

Community

WunderPhotos

Upload Photos

1,766,573 photos uploaded!

WunderBlogs® & News

Nearby

Air Quality

  Air Quality AQ Index Pollutant
Not available.

Snow Depth

Station Depth Elevation

Earthquake Activity

City Distance Mag. Time & Date
Minimum magnitude displayed is 2.5.

Coastal Water Temperatures

Place Temperature

Nearby Weather Stations